Campbell Airport

Jump to: basic info | weather | frequencies | runways | comments

Related pages: nearby airports | nearby navaids | notams | map

Basic information (top)

Codes: KC81 C81
Location: lon 42.324600, lat -88.074097, elev 788 ft / 240 m msl
Status: small_airport
Scheduled airline service: no
Links: Wikipedia Mobile

Weather (top)

Current conditions for Waukegan Regional Airport 11nm (20km) ENE (rec'd 2015/04/25 05:55Z):

KUGN 250555Z AUTO 05010G19KT 10SM OVC049 04/02 A2992 RMK AO2 SLP137 60025 T00390022 10050 20033 401061039 58004

Airport forecast for Kenosha Regional Airport 18nm (32km) NNE (rec'd 2015/04/25 06:21Z):

TAF KENW 250520Z 2506/2606 07012KT P6SM OVC050 
     FM251300 08014KT 6SM -RA OVC030 
     FM251500 08015G20KT 5SM -RA OVC015 
     FM252000 06014G22KT 6SM -RA OVC015 
     FM260000 05013G20KT P6SM OVC050 
     FM260400 03009KT P6SM BKN250

Frequencies (top)

Verify before use: may be inaccurate or out of date.

A/D: 120.55 MHz (CHICAGO APP/DEP)
UNIC: 122.7 MHz (CTAF/UNICOM)

Runways (top)

06/24: 3,573 x 40 ft (1,089 x 12 m) — other (COP) — not lighted — threshold 24 displaced 301 ft (92 m)

09/27: 3,270 x 40 ft (997 x 12 m) — paved — lighted

Latest comments (top)

My aviation birthplace.: I did my Private Pilot training here. [read]

More... (top)

See also NOTAMs and nearby airports and navaids, or visit the Campbell Airport page at the main OurAirports website..